»·PEaware :: N8092H KSBP-KSBA

N8092H :: KSBP-KSBA

FLIGHT INFORMATION

Flight Status: Arrived
Operator: Privately registered:
United States
More flights under this callsign
Pilot: Mark B. (9455)
Aircraft: CESSNA 172 SKYHAWK
(C172)
More flights by this aircraft type
Origin: KSBP San Luis Co Regl
United States
Destination: KSBA Santa Barbara Mun
United States
More flights between these airports :: More routes between these airports
Route: +V27 GVO
File this flight plan on PilotEdge
Remarks:
Altitude:
(Current/Filed)
7,000ft
Speed:
(Current/Filed)
115kts
Departed: 09-Feb-17 02:49 PM
Arrived: 09-Feb-17 03:36 PM
Distance/Time
Traveled:
63nm/0:47
Distance/Time
To Go:
Arrived

Flight Plot

Page will automatically refresh every two minutes.


Map Options




Map Legend


Flown Route
Filed Route
Departure Airport
Arrival Airport
Navaid (VOR, NDB)
Fix

Horizontal Profiles

Position Reports

Time Latitude Longitude Heading Altitude Ground
Speed
09-Feb-17 14:32 35.238081 -120.638654 270 215ft 0kts
09-Feb-17 14:33 35.238081 -120.638654 270 215ft 0kts
09-Feb-17 14:34 35.238081 -120.638654 270 215ft 0kts
09-Feb-17 14:35 35.238081 -120.638654 270 215ft 0kts
09-Feb-17 14:36 35.238081 -120.638654 270 215ft 0kts
09-Feb-17 14:37 35.238081 -120.638654 270 215ft 0kts
09-Feb-17 14:38 35.238081 -120.638654 270 215ft 0kts
09-Feb-17 14:39 35.238081 -120.638654 270 215ft 0kts
09-Feb-17 14:40 35.238081 -120.638654 270 215ft 0kts
09-Feb-17 14:41 35.238081 -120.638654 270 215ft 0kts
09-Feb-17 14:42 35.238081 -120.638654 270 215ft 0kts
09-Feb-17 14:43 35.238081 -120.638654 270 215ft 0kts
09-Feb-17 14:44 35.237858 -120.639189 243 215ft 12kts
09-Feb-17 14:45 35.238762 -120.641649 131 215ft 18kts
09-Feb-17 14:46 35.234326 -120.633830 124 215ft 23kts
09-Feb-17 14:47 35.233191 -120.632240 227 215ft 0kts
09-Feb-17 14:48 35.233172 -120.632273 235 215ft 0kts
09-Feb-17 14:49 35.233712 -120.634629 303 215ft 52kts
09-Feb-17 14:50 35.246124 -120.656734 303 1200ft 80kts
09-Feb-17 14:51 35.259238 -120.679718 305 2268ft 85kts
09-Feb-17 14:52 35.272779 -120.703065 304 3306ft 84kts
09-Feb-17 14:53 35.270734 -120.729262 240 4237ft 89kts
09-Feb-17 14:54 35.254743 -120.751124 219 5170ft 88kts
09-Feb-17 14:55 35.232125 -120.745237 156 6021ft 89kts
09-Feb-17 14:56 35.209494 -120.733206 148 6850ft 89kts
09-Feb-17 14:57 35.184214 -120.714283 150 6911ft 121kts
09-Feb-17 14:58 35.155639 -120.695166 151 6949ft 115kts
09-Feb-17 14:59 35.128220 -120.673631 139 6891ft 117kts
09-Feb-17 15:00 35.106937 -120.643856 127 6914ft 114kts
09-Feb-17 15:01 35.085833 -120.614530 137 6937ft 116kts
09-Feb-17 15:02 35.061156 -120.589290 144 6920ft 118kts
09-Feb-17 15:03 35.035045 -120.566369 139 6946ft 118kts
09-Feb-17 15:04 35.009462 -120.541593 144 6917ft 118kts
09-Feb-17 15:05 34.982656 -120.519709 144 6933ft 117kts
09-Feb-17 15:06 34.955186 -120.498564 150 6920ft 117kts
09-Feb-17 15:07 34.927121 -120.478784 148 6967ft 112kts
09-Feb-17 15:08 34.901245 -120.456178 142 6984ft 116kts
09-Feb-17 15:09 34.874873 -120.432345 145 6912ft 118kts
09-Feb-17 15:10 34.848612 -120.409217 141 6922ft 118kts
09-Feb-17 15:11 34.822811 -120.385050 143 6895ft 118kts
09-Feb-17 15:12 34.798152 -120.360148 134 6946ft 116kts
09-Feb-17 15:13 34.773519 -120.334095 139 6913ft 118kts
09-Feb-17 15:14 34.750796 -120.306820 134 6974ft 116kts
09-Feb-17 15:15 34.727153 -120.279090 145 6843ft 124kts
09-Feb-17 15:16 34.692800 -120.265496 162 6143ft 136kts
09-Feb-17 15:17 34.657063 -120.252124 161 5365ft 137kts
09-Feb-17 15:18 34.621193 -120.238220 161 4516ft 137kts
09-Feb-17 15:19 34.585800 -120.224242 161 3916ft 122kts
09-Feb-17 15:20 34.554405 -120.211509 162 3924ft 117kts
09-Feb-17 15:21 34.525267 -120.198989 162 3952ft 98kts
09-Feb-17 15:22 34.500806 -120.188714 161 3972ft 91kts
09-Feb-17 15:23 34.476799 -120.179357 160 3989ft 89kts
09-Feb-17 15:24 34.452839 -120.170009 161 4001ft 88kts
09-Feb-17 15:25 34.429554 -120.158462 157 3991ft 89kts
09-Feb-17 15:26 34.425571 -120.131601 92 3890ft 94kts
09-Feb-17 15:27 34.421354 -120.101295 92 3245ft 93kts
09-Feb-17 15:28 34.422215 -120.070786 85 2585ft 89kts
09-Feb-17 15:29 34.423651 -120.040563 87 1992ft 94kts
09-Feb-17 15:30 34.424265 -120.010203 85 1950ft 91kts
09-Feb-17 15:31 34.424597 -119.980268 86 1926ft 88kts
09-Feb-17 15:32 34.425058 -119.950710 84 1640ft 90kts
09-Feb-17 15:33 34.425938 -119.920400 88 1108ft 90kts
09-Feb-17 15:34 34.426371 -119.890737 88 661ft 90kts
09-Feb-17 15:35 34.427049 -119.866143 90 291ft 86kts
09-Feb-17 15:36 34.427493 -119.840880 87 17ft 27kts
09-Feb-17 15:37 34.426804 -119.835235 191 17ft 2kts
09-Feb-17 15:38 34.426195 -119.838228 200 17ft 15kts
09-Feb-17 15:39 34.422136 -119.837073 5 17ft 0kts

Navigation Log

Ident Type
Flight plan parsing failed, navigation log unavailable